WST516 MYAK-MYNN
Flight info
| Callsign | WST516 |
|---|---|
| Flight time | 0h 17m |
| Altitude | 7000 |
| Route | JEFRY DCT ZQA |
| Aircraft | E145/M-SDFGIRW/S |
Departure
| Time | 2026-05-04 14:41 |
|---|---|
| Airport | Congo Town Airport (MYAK) |
Arrival
| Time | 2026-05-04 14:58 |
|---|---|
| Airport | Lynden Pindling International Airport (MYNN) |
| Time | Latitude | Longitude | Altitude | Speed | Heading |
|---|---|---|---|---|---|
| 2026-05-04 14:27 | 24.15668 | -77.58429 | 38 ft | 0 kts | 91° |
| 2026-05-04 14:37 | 24.15668 | -77.58428 | 38 ft | 1 kts | 91° |
| 2026-05-04 14:37 | 24.15693 | -77.58414 | 38 ft | 6 kts | 7° |
| 2026-05-04 14:38 | 24.15734 | -77.58402 | 38 ft | 6 kts | 21° |
| 2026-05-04 14:38 | 24.15758 | -77.58369 | 38 ft | 7 kts | 90° |
| 2026-05-04 14:38 | 24.15741 | -77.58279 | 34 ft | 12 kts | 104° |
| 2026-05-04 14:38 | 24.15723 | -77.58195 | 34 ft | 1 kts | 72° |
| 2026-05-04 14:39 | 24.15732 | -77.58194 | 34 ft | 2 kts | 345° |
| 2026-05-04 14:39 | 24.15737 | -77.58208 | 34 ft | 0 kts | 276° |
| 2026-05-04 14:39 | 24.15738 | -77.58212 | 34 ft | 0 kts | 276° |
| 2026-05-04 14:40 | 24.15738 | -77.58218 | 34 ft | 0 kts | 276° |
| 2026-05-04 14:40 | 24.15740 | -77.58234 | 34 ft | 16 kts | 277° |
| 2026-05-04 14:40 | 24.15801 | -77.58575 | 42 ft | 73 kts | 282° |
| 2026-05-04 14:41 | 24.15951 | -77.59351 | 42 ft | 133 kts | 282° |
| 2026-05-04 14:41 | 24.16143 | -77.60383 | 450 ft | 145 kts | 282° |
| 2026-05-04 14:41 | 24.16798 | -77.62311 | 2023 ft | 123 kts | 328° |
| 2026-05-04 14:42 | 24.18446 | -77.62826 | 2867 ft | 146 kts | 347° |
| 2026-05-04 14:42 | 24.19545 | -77.62983 | 3232 ft | 175 kts | 351° |
| 2026-05-04 14:42 | 24.20836 | -77.63097 | 3622 ft | 193 kts | 352° |
| 2026-05-04 14:43 | 24.22219 | -77.63192 | 3979 ft | 207 kts | 353° |
| 2026-05-04 14:43 | 24.23707 | -77.63284 | 4337 ft | 221 kts | 353° |
| 2026-05-04 14:43 | 24.25290 | -77.63377 | 4690 ft | 234 kts | 354° |
| 2026-05-04 14:43 | 24.26956 | -77.63473 | 5039 ft | 247 kts | 353° |
| 2026-05-04 14:44 | 24.28723 | -77.63575 | 5387 ft | 259 kts | 353° |
| 2026-05-04 14:44 | 24.30548 | -77.63681 | 5730 ft | 270 kts | 354° |
| 2026-05-04 14:44 | 24.32411 | -77.63786 | 6053 ft | 257 kts | 353° |
| 2026-05-04 14:44 | 24.34123 | -77.63885 | 6356 ft | 239 kts | 353° |
| 2026-05-04 14:45 | 24.35752 | -77.63980 | 6666 ft | 231 kts | 353° |
| 2026-05-04 14:45 | 24.37360 | -77.64074 | 6960 ft | 227 kts | 353° |
| 2026-05-04 14:45 | 24.38971 | -77.64168 | 7018 ft | 237 kts | 353° |
| 2026-05-04 14:45 | 24.40648 | -77.64267 | 7026 ft | 247 kts | 353° |
| 2026-05-04 14:46 | 24.42411 | -77.64368 | 7027 ft | 257 kts | 353° |
| 2026-05-04 14:46 | 24.44239 | -77.64475 | 7024 ft | 266 kts | 353° |
| 2026-05-04 14:46 | 24.46103 | -77.64583 | 7021 ft | 273 kts | 353° |
| 2026-05-04 14:46 | 24.48049 | -77.64696 | 7021 ft | 280 kts | 353° |
| 2026-05-04 14:47 | 24.49987 | -77.64807 | 7015 ft | 276 kts | 353° |
| 2026-05-04 14:47 | 24.51888 | -77.64917 | 7009 ft | 266 kts | 353° |
| 2026-05-04 14:47 | 24.53702 | -77.65022 | 7008 ft | 257 kts | 353° |
| 2026-05-04 14:47 | 24.55451 | -77.65124 | 7011 ft | 249 kts | 352° |
| 2026-05-04 14:48 | 24.57159 | -77.65218 | 7013 ft | 242 kts | 355° |
| 2026-05-04 14:48 | 24.58797 | -77.64754 | 7029 ft | 244 kts | 28° |
| 2026-05-04 14:48 | 24.60056 | -77.63532 | 7027 ft | 242 kts | 40° |
| 2026-05-04 14:48 | 24.61269 | -77.62243 | 7015 ft | 237 kts | 40° |
| 2026-05-04 14:49 | 24.62443 | -77.60994 | 7018 ft | 233 kts | 40° |
| 2026-05-04 14:49 | 24.63596 | -77.59767 | 7016 ft | 229 kts | 40° |
| 2026-05-04 14:49 | 24.64765 | -77.58527 | 6812 ft | 241 kts | 40° |
| 2026-05-04 14:49 | 24.66012 | -77.57201 | 6597 ft | 256 kts | 40° |
| 2026-05-04 14:50 | 24.67316 | -77.55813 | 6362 ft | 268 kts | 40° |
| 2026-05-04 14:50 | 24.68676 | -77.54364 | 6128 ft | 279 kts | 41° |
| 2026-05-04 14:50 | 24.70088 | -77.52860 | 5897 ft | 288 kts | 41° |
| 2026-05-04 14:50 | 24.71537 | -77.51315 | 5657 ft | 286 kts | 41° |
| 2026-05-04 14:51 | 24.72941 | -77.49819 | 5409 ft | 277 kts | 41° |
| 2026-05-04 14:51 | 24.74309 | -77.48360 | 5154 ft | 269 kts | 41° |
| 2026-05-04 14:51 | 24.75639 | -77.46942 | 4902 ft | 262 kts | 41° |
| 2026-05-04 14:51 | 24.76932 | -77.45564 | 4654 ft | 256 kts | 41° |
| 2026-05-04 14:52 | 24.78199 | -77.44212 | 4406 ft | 251 kts | 41° |
| 2026-05-04 14:52 | 24.79454 | -77.42871 | 4157 ft | 247 kts | 41° |
| 2026-05-04 14:52 | 24.80668 | -77.41576 | 3915 ft | 243 kts | 41° |
| 2026-05-04 14:52 | 24.81881 | -77.40280 | 3668 ft | 240 kts | 41° |
| 2026-05-04 14:53 | 24.83066 | -77.39014 | 3424 ft | 237 kts | 41° |
| 2026-05-04 14:53 | 24.84237 | -77.37764 | 3183 ft | 234 kts | 41° |
| 2026-05-04 14:53 | 24.85408 | -77.36512 | 2940 ft | 232 kts | 41° |
| 2026-05-04 14:53 | 24.86566 | -77.35274 | 2697 ft | 230 kts | 41° |
| 2026-05-04 14:54 | 24.87706 | -77.34055 | 2448 ft | 228 kts | 42° |
| 2026-05-04 14:54 | 24.88895 | -77.32953 | 2199 ft | 223 kts | 24° |
| 2026-05-04 14:54 | 24.90376 | -77.32711 | 2065 ft | 206 kts | 345° |
| 2026-05-04 14:54 | 24.91652 | -77.33276 | 1884 ft | 194 kts | 333° |
| 2026-05-04 14:55 | 24.92816 | -77.33865 | 1700 ft | 168 kts | 333° |
| 2026-05-04 14:55 | 24.93844 | -77.34457 | 1472 ft | 165 kts | 320° |
| 2026-05-04 14:55 | 24.94641 | -77.35358 | 1492 ft | 168 kts | 309° |
| 2026-05-04 14:55 | 24.95376 | -77.36376 | 1595 ft | 169 kts | 308° |
| 2026-05-04 14:56 | 24.96150 | -77.37349 | 1650 ft | 168 kts | 312° |
| 2026-05-04 14:56 | 24.96960 | -77.38302 | 1677 ft | 173 kts | 311° |
| 2026-05-04 14:56 | 24.97797 | -77.39276 | 1654 ft | 170 kts | 313° |
| 2026-05-04 14:56 | 24.98590 | -77.40196 | 1579 ft | 163 kts | 312° |
| 2026-05-04 14:57 | 24.99357 | -77.41072 | 1500 ft | 151 kts | 312° |
| 2026-05-04 14:57 | 25.00088 | -77.41870 | 1081 ft | 145 kts | 314° |
| 2026-05-04 14:57 | 25.00773 | -77.42612 | 787 ft | 141 kts | 313° |
| 2026-05-04 14:57 | 25.01464 | -77.43418 | 607 ft | 149 kts | 311° |
| 2026-05-04 14:58 | 25.02217 | -77.44263 | 360 ft | 159 kts | 314° |
| 2026-05-04 14:58 | 25.02984 | -77.45110 | 79 ft | 151 kts | 312° |
| 2026-05-04 14:58 | 25.03654 | -77.45871 | 24 ft | 122 kts | 313° |
| 2026-05-04 14:58 | 25.04105 | -77.46374 | 22 ft | 35 kts | 317° |
| 2026-05-04 14:59 | 25.04159 | -77.46382 | 23 ft | 7 kts | 114° |
| 2026-05-04 14:59 | 25.04117 | -77.46285 | 23 ft | 18 kts | 108° |
| 2026-05-04 14:59 | 25.04225 | -77.46253 | 24 ft | 24 kts | 314° |
| 2026-05-04 15:00 | 25.04377 | -77.46414 | 26 ft | 33 kts | 316° |
| 2026-05-04 15:00 | 25.04545 | -77.46599 | 24 ft | 34 kts | 314° |
| 2026-05-04 15:00 | 25.04669 | -77.46733 | 23 ft | 18 kts | 333° |
| 2026-05-04 15:01 | 25.04821 | -77.46609 | 27 ft | 7 kts | 72° |
| 2026-05-04 15:01 | 25.04839 | -77.46584 | 28 ft | 0 kts | 40° |